Interessegrupper
Antall som skal vises: 
Nr. Nettlenke Treff
1   Link   BirdDog
1979
2   Link   Cessna Owner Organization
3148
3   Link   Cessna Pilots Association
1735
4   Link   Dakota Norway
3175
5   Link   DC-3 Vennerne
1728
6   Link   Europa Club
1903
7   Link   Kjevik Siden
1930
8   Link   Lancair Pilots
2075
9   Link   Piper Owner Society
2305
10   Link   Scandinavian Historic Flight
1856
11   Link   Seaplane Pilots Association
1715
12   Link   StarFighter
2073
13   Link   Storch
1901
14   Link   SuperCub
3188
15   Link   Svensk Flyghistorisk Forening
1751
16   Link   The Flying Clippers
1725
17   Link   The Old Flying Machine Company
1640
18   Link   Troms luftsportskrets
1878
19   Link   Vintage Aircraft Association
3059
20   Link   Warbirds of Norway
2089
«StartForrige12NesteSiste»
Side 1 av 2
 
METAR
2018/12/12 15:50 ENCN 121550Z 04007KT 9999 FEW043 M01/M03 Q1032
TAF
2018/12/12 15:37 TAF ENCN 121400Z 1215/1222 05008KT 9999 FEW012 BKN025 PROB40 TEMPO 1215/1222 4000 -SN BKN012
LN-KFK
Operativ VFR-natt
VFR dag
08:13 - 16:29
Brannvakt
Inaktiv
Banner
Banner
Banner
Banner
Banner